sensor_id;sensor_type;location;lat;lon;timestamp;pressure;altitude;pressure_sealevel;temperature;humidity
76095;BME280;64821;13.710;100.604;2023-04-01T20:02:03;100754.66;;;35.96;
76095;BME280;64821;13.710;100.604;2023-04-01T20:03:19;100743.53;;;35.93;46.54
76095;BME280;64821;13.710;100.604;2023-04-01T20:04:29;100733.75;;;35.71;46.40
76095;BME280;64821;13.710;100.604;2023-04-01T20:05:48;100751.81;;;35.81;46.73
76095;BME280;64821;13.710;100.604;2023-04-01T20:06:57;100760.66;;;35.74;47.00
76095;BME280;64821;13.710;100.604;2023-04-01T20:08:12;100762.66;;;35.65;47.09
76095;BME280;64821;13.710;100.604;2023-04-01T20:09:41;100764.19;;;35.87;46.44
76095;BME280;64821;13.710;100.604;2023-04-01T20:10:57;100763.38;;;35.98;46.22
76095;BME280;64821;13.710;100.604;2023-04-01T20:12:07;100753.38;;;36.06;45.68
76095;BME280;64821;13.710;100.604;2023-04-01T20:13:24;100758.69;;;36.11;46.22
76095;BME280;64821;13.710;100.604;2023-04-01T20:14:38;100761.91;;;36.01;46.09
76095;BME280;64821;13.710;100.604;2023-04-01T20:15:46;100765.22;;;35.94;46.16
76095;BME280;64821;13.710;100.604;2023-04-01T20:18:20;100762.84;;;35.93;46.14
76095;BME280;64821;13.710;100.604;2023-04-01T20:19:29;100758.69;;;35.99;46.21
76095;BME280;64821;13.710;100.604;2023-04-01T20:20:36;100760.72;;;35.66;46.58
76095;BME280;64821;13.710;100.604;2023-04-01T20:21:43;100752.00;;;35.64;47.40
76095;BME280;64821;13.710;100.604;2023-04-01T20:23:01;100752.44;;;35.66;46.67
76095;BME280;64821;13.710;100.604;2023-04-01T20:24:15;100743.75;;;35.64;46.61
76095;BME280;64821;13.710;100.604;2023-04-01T20:25:24;100748.16;;;35.32;47.82
76095;BME280;64821;13.710;100.604;2023-04-01T20:26:33;100751.84;;;35.48;47.00
76095;BME280;64821;13.710;100.604;2023-04-01T20:27:43;100755.16;;;35.74;46.61
76095;BME280;64821;13.710;100.604;2023-04-01T20:29:03;100746.50;;;35.88;46.40
76095;BME280;64821;13.710;100.604;2023-04-01T20:30:34;100759.50;;;36.00;46.28
76095;BME280;64821;13.710;100.604;2023-04-01T20:31:42;100754.09;;;36.03;45.96
76095;BME280;64821;13.710;100.604;2023-04-01T20:33:05;100760.28;;;36.12;45.82
76095;BME280;64821;13.710;100.604;2023-04-01T20:34:21;100760.03;;;36.17;45.97
76095;BME280;64821;13.710;100.604;2023-04-01T20:35:40;100758.56;;;36.20;45.39
76095;BME280;64821;13.710;100.604;2023-04-01T20:36:58;100759.03;;;36.22;45.92
76095;BME280;64821;13.710;100.604;2023-04-01T20:38:32;100758.44;;;36.16;46.40
76095;BME280;64821;13.710;100.604;2023-04-01T20:40:01;100762.56;;;35.61;47.33
76095;BME280;64821;13.710;100.604;2023-04-01T20:41:22;100762.03;;;35.92;47.01
76095;BME280;64821;13.710;100.604;2023-04-01T20:42:49;100757.06;;;35.86;47.03
76095;BME280;64821;13.710;100.604;2023-04-01T20:44:04;100752.81;;;35.76;47.48
76095;BME280;64821;13.710;100.604;2023-04-01T20:45:25;100724.59;;;35.79;46.63
76095;BME280;64821;13.710;100.604;2023-04-01T20:46:38;100753.25;;;35.66;47.96
76095;BME280;64821;13.710;100.604;2023-04-01T20:48:00;100734.09;;;35.45;47.63
76095;BME280;64821;13.710;100.604;2023-04-01T20:49:29;100760.81;;;35.57;47.45
76095;BME280;64821;13.710;100.604;2023-04-01T20:50:37;100757.84;;;35.62;47.74
76095;BME280;64821;13.710;100.604;2023-04-01T20:51:53;100741.78;;;35.64;47.40
76095;BME280;64821;13.710;100.604;2023-04-01T20:53:04;100760.41;;;35.79;47.62
76095;BME280;64821;13.710;100.604;2023-04-01T20:54:35;100756.72;;;36.00;46.81
76095;BME280;64821;13.710;100.604;2023-04-01T20:57:21;100759.72;;;35.94;47.02
76095;BME280;64821;13.710;100.604;2023-04-01T20:58:32;100751.94;;;35.84;46.99
76095;BME280;64821;13.710;100.604;2023-04-01T21:00:02;100754.91;;;36.04;46.80
76095;BME280;64821;13.710;100.604;2023-04-01T21:01:13;100754.31;;;36.10;46.50
76095;BME280;64821;13.710;100.604;2023-04-01T21:02:42;100751.22;;;36.00;46.65
76095;BME280;64821;13.710;100.604;2023-04-01T21:03:58;100753.97;;;36.12;46.46
76095;BME280;64821;13.710;100.604;2023-04-01T21:05:33;100754.88;;;35.22;48.70
76095;BME280;64821;13.710;100.604;2023-04-01T21:08:30;100749.22;;;35.51;47.90
76095;BME280;64821;13.710;100.604;2023-04-01T21:10:04;100750.44;;;35.75;47.63
76095;BME280;64821;13.710;100.604;2023-04-01T21:11:18;100751.00;;;35.80;46.80
76095;BME280;64821;13.710;100.604;2023-04-01T21:12:33;100759.03;;;35.97;46.48
76095;BME280;64821;13.710;100.604;2023-04-01T21:14:06;100758.22;;;36.09;46.53
76095;BME280;64821;13.710;100.604;2023-04-01T21:15:26;100757.50;;;35.64;47.32
76095;BME280;64821;13.710;100.604;2023-04-01T21:16:41;100761.69;;;35.94;46.63
76095;BME280;64821;13.710;100.604;2023-04-01T21:18:04;100765.22;;;35.94;46.96
76095;BME280;64821;13.710;100.604;2023-04-01T21:19:37;100759.72;;;35.82;46.94
76095;BME280;64821;13.710;100.604;2023-04-01T21:23:59;100756.72;;;36.00;45.92
76095;BME280;64821;13.710;100.604;2023-04-01T21:25:29;100750.63;;;36.06;46.28
76095;BME280;64821;13.710;100.604;2023-04-01T21:26:48;100757.53;;;36.12;46.26
76095;BME280;64821;13.710;100.604;2023-04-01T21:29:41;100757.53;;;35.88;46.61
76095;BME280;64821;13.710;100.604;2023-04-01T21:31:05;100763.50;;;35.90;46.61
76095;BME280;64821;13.710;100.604;2023-04-01T21:32:24;100767.88;;;36.03;46.08
76095;BME280;64821;13.710;100.604;2023-04-01T21:33:59;100767.88;;;35.79;47.06
76095;BME280;64821;13.710;100.604;2023-04-01T21:35:14;100762.16;;;35.84;46.88
76095;BME280;64821;13.710;100.604;2023-04-01T21:36:36;100768.22;;;35.89;45.97
76095;BME280;64821;13.710;100.604;2023-04-01T21:37:59;100759.13;;;35.65;46.61
76095;BME280;64821;13.710;100.604;2023-04-01T21:39:19;100759.72;;;35.94;46.02
76095;BME280;64821;13.710;100.604;2023-04-01T21:40:52;100764.91;;;35.84;46.60
76095;BME280;64821;13.710;100.604;2023-04-01T21:42:04;100761.63;;;35.70;47.16
76095;BME280;64821;13.710;100.604;2023-04-01T21:43:22;100753.59;;;35.52;47.62
76095;BME280;64821;13.710;100.604;2023-04-01T21:44:58;100759.81;;;35.86;46.46
76095;BME280;64821;13.710;100.604;2023-04-01T21:48:26;100753.25;;;35.54;47.17
76095;BME280;64821;13.710;100.604;2023-04-01T21:53:02;100766.94;;;35.87;46.61
76095;BME280;64821;13.710;100.604;2023-04-01T21:58:04;100761.78;;;35.97;46.68
76095;BME280;64821;13.710;100.604;2023-04-01T22:00:55;100754.34;;;35.74;46.92
76095;BME280;64821;13.710;100.604;2023-04-01T22:04:13;100759.22;;;35.68;47.16
76095;BME280;64821;13.710;100.604;2023-04-01T22:05:22;100765.63;;;35.48;47.36
76095;BME280;64821;13.710;100.604;2023-04-01T22:06:32;100771.47;;;35.46;47.98
76095;BME280;64821;13.710;100.604;2023-04-01T22:07:44;100778.63;;;35.59;47.46
76095;BME280;64821;13.710;100.604;2023-04-01T22:09:05;100770.75;;;35.82;47.07
76095;BME280;64821;13.710;100.604;2023-04-01T22:10:21;100781.41;;;35.96;46.58
76095;BME280;64821;13.710;100.604;2023-04-01T22:11:36;100782.25;;;35.84;47.22
76095;BME280;64821;13.710;100.604;2023-04-01T22:12:47;100779.81;;;35.95;46.26
76095;BME280;64821;13.710;100.604;2023-04-01T22:13:59;100771.66;;;35.86;46.87
76095;BME280;64821;13.710;100.604;2023-04-01T22:15:12;100758.34;;;35.88;46.52
76095;BME280;64821;13.710;100.604;2023-04-01T22:16:24;100775.56;;;35.97;46.89
76095;BME280;64821;13.710;100.604;2023-04-01T22:17:35;100781.88;;;35.86;46.76
76095;BME280;64821;13.710;100.604;2023-04-01T22:18:48;100786.59;;;35.97;46.75
76095;BME280;64821;13.710;100.604;2023-04-01T22:19:58;100774.06;;;36.00;46.37
76095;BME280;64821;13.710;100.604;2023-04-01T22:21:07;100779.13;;;36.10;46.29
76095;BME280;64821;13.710;100.604;2023-04-01T22:22:18;100774.75;;;36.09;46.18
76095;BME280;64821;13.710;100.604;2023-04-01T22:23:29;100781.66;;;36.03;46.57
76095;BME280;64821;13.710;100.604;2023-04-01T22:24:41;100795.44;;;36.15;46.37
76095;BME280;64821;13.710;100.604;2023-04-01T22:25:54;100786.81;;;36.17;45.85
76095;BME280;64821;13.710;100.604;2023-04-01T22:27:07;100789.56;;;36.17;46.35
76095;BME280;64821;13.710;100.604;2023-04-01T22:28:14;100797.16;;;36.20;45.97
76095;BME280;64821;13.710;100.604;2023-04-01T22:29:23;100784.50;;;36.19;45.86
76095;BME280;64821;13.710;100.604;2023-04-01T22:30:31;100792.56;;;36.24;45.65
76095;BME280;64821;13.710;100.604;2023-04-01T22:31:40;100792.13;;;36.22;46.31
76095;BME280;64821;13.710;100.604;2023-04-01T22:32:49;100798.47;;;36.22;46.31
76095;BME280;64821;13.710;100.604;2023-04-01T22:34:00;100789.81;;;36.12;46.61
76095;BME280;64821;13.710;100.604;2023-04-01T22:35:10;100766.41;;;35.93;46.08
76095;BME280;64821;13.710;100.604;2023-04-01T22:36:26;100804.97;;;36.18;46.39
76095;BME280;64821;13.710;100.604;2023-04-01T22:37:40;100806.84;;;36.14;46.49
76095;BME280;64821;13.710;100.604;2023-04-01T22:39:09;100786.81;;;36.05;46.24
76095;BME280;64821;13.710;100.604;2023-04-01T22:40:23;100812.69;;;36.00;46.52
76095;BME280;64821;13.710;100.604;2023-04-01T22:41:38;100794.06;;;35.97;46.65
76095;BME280;64821;13.710;100.604;2023-04-01T22:42:48;100806.94;;;36.05;45.95
76095;BME280;64821;13.710;100.604;2023-04-01T22:43:57;100818.28;;;36.16;46.71
76095;BME280;64821;13.710;100.604;2023-04-01T22:45:10;100810.72;;;36.13;46.85
76095;BME280;64821;13.710;100.604;2023-04-01T22:46:26;100810.84;;;36.16;45.74
76095;BME280;64821;13.710;100.604;2023-04-01T22:47:42;100785.31;;;35.95;46.74
76095;BME280;64821;13.710;100.604;2023-04-01T22:48:55;100816.47;;;36.20;46.51
76095;BME280;64821;13.710;100.604;2023-04-01T22:50:07;100816.47;;;36.20;46.45
76095;BME280;64821;13.710;100.604;2023-04-01T22:51:18;100817.63;;;36.19;46.64
76095;BME280;64821;13.710;100.604;2023-04-01T22:52:28;100820.06;;;36.20;46.27
76095;BME280;64821;13.710;100.604;2023-04-01T22:53:49;100823.38;;;36.26;46.06
76095;BME280;64821;13.710;100.604;2023-04-01T22:55:00;100826.47;;;36.24;46.55
76095;BME280;64821;13.710;100.604;2023-04-01T22:56:11;100825.00;;;36.27;45.90
76095;BME280;64821;13.710;100.604;2023-04-01T22:57:39;100828.56;;;36.27;46.42
76095;BME280;64821;13.710;100.604;2023-04-01T22:58:49;100832.81;;;36.25;46.25
76095;BME280;64821;13.710;100.604;2023-04-01T22:59:58;100827.16;;;35.97;46.95
76095;BME280;64821;13.710;100.604;2023-04-01T23:01:07;100830.03;;;36.13;46.72
76095;BME280;64821;13.710;100.604;2023-04-01T23:02:16;100830.75;;;36.22;46.59
76095;BME280;64821;13.710;100.604;2023-04-01T23:03:25;100839.94;;;36.26;46.23
76095;BME280;64821;13.710;100.604;2023-04-01T23:04:33;100829.44;;;36.19;46.33
76095;BME280;64821;13.710;100.604;2023-04-01T23:05:47;100837.97;;;36.26;46.52
76095;BME280;64821;13.710;100.604;2023-04-01T23:07:24;100842.47;;;36.31;46.14
76095;BME280;64821;13.710;100.604;2023-04-01T23:09:05;100837.72;;;36.19;46.29
76095;BME280;64821;13.710;100.604;2023-04-01T23:10:18;100847.31;;;36.22;46.51
76095;BME280;64821;13.710;100.604;2023-04-01T23:11:26;100837.63;;;36.04;46.69
76095;BME280;64821;13.710;100.604;2023-04-01T23:12:33;100835.56;;;36.13;46.38
76095;BME280;64821;13.710;100.604;2023-04-01T23:13:41;100853.72;;;36.26;46.41
76095;BME280;64821;13.710;100.604;2023-04-01T23:14:49;100838.31;;;36.13;46.52
76095;BME280;64821;13.710;100.604;2023-04-01T23:15:54;100854.88;;;36.25;46.30
76095;BME280;64821;13.710;100.604;2023-04-01T23:17:08;100850.06;;;36.22;46.47
76095;BME280;64821;13.710;100.604;2023-04-01T23:18:36;100847.41;;;36.25;46.55
76095;BME280;64821;13.710;100.604;2023-04-01T23:19:49;100851.31;;;36.24;46.71
76095;BME280;64821;13.710;100.604;2023-04-01T23:21:06;100844.97;;;36.24;46.89
76095;BME280;64821;13.710;100.604;2023-04-01T23:22:24;100844.22;;;36.23;46.60
76095;BME280;64821;13.710;100.604;2023-04-01T23:23:42;100855.53;;;36.10;46.76
76095;BME280;64821;13.710;100.604;2023-04-01T23:24:51;100820.72;;;35.93;46.88
76095;BME280;64821;13.710;100.604;2023-04-01T23:26:03;100858.75;;;36.12;46.47
76095;BME280;64821;13.710;100.604;2023-04-01T23:27:15;100854.78;;;36.21;46.32
76095;BME280;64821;13.710;100.604;2023-04-01T23:28:45;100848.63;;;36.16;47.13
76095;BME280;64821;13.710;100.604;2023-04-01T23:29:50;100850.50;;;36.24;46.54
76095;BME280;64821;13.710;100.604;2023-04-01T23:30:54;100858.19;;;36.18;47.00
76095;BME280;64821;13.710;100.604;2023-04-01T23:31:59;100859.47;;;36.21;46.18
76095;BME280;64821;13.710;100.604;2023-04-01T23:33:10;100858.00;;;36.23;46.66
76095;BME280;64821;13.710;100.604;2023-04-01T23:34:24;100863.34;;;36.08;47.17
76095;BME280;64821;13.710;100.604;2023-04-01T23:35:28;100864.47;;;35.82;47.81
76095;BME280;64821;13.710;100.604;2023-04-01T23:36:38;100863.47;;;35.66;48.29
76095;BME280;64821;13.710;100.604;2023-04-01T23:37:59;100873.22;;;35.84;47.63
76095;BME280;64821;13.710;100.604;2023-04-01T23:39:06;100873.00;;;36.02;47.38
76095;BME280;64821;13.710;100.604;2023-04-01T23:40:18;100871.38;;;36.01;47.15
76095;BME280;64821;13.710;100.604;2023-04-01T23:41:24;100869.78;;;36.12;47.38
76095;BME280;64821;13.710;100.604;2023-04-01T23:42:30;100872.44;;;36.08;47.29
76095;BME280;64821;13.710;100.604;2023-04-01T23:43:37;100870.59;;;36.12;46.82
76095;BME280;64821;13.710;100.604;2023-04-01T23:44:43;100872.97;;;35.89;47.32
76095;BME280;64821;13.710;100.604;2023-04-01T23:45:47;100889.19;;;35.91;47.99
76095;BME280;64821;13.710;100.604;2023-04-01T23:46:51;100864.72;;;35.89;47.09
76095;BME280;64821;13.710;100.604;2023-04-01T23:47:56;100875.66;;;36.10;46.88
76095;BME280;64821;13.710;100.604;2023-04-01T23:49:01;100881.22;;;36.22;46.81
76095;BME280;64821;13.710;100.604;2023-04-01T23:50:09;100888.16;;;35.95;47.43
76095;BME280;64821;13.710;100.604;2023-04-01T23:51:20;100879.56;;;36.09;47.21
76095;BME280;64821;13.710;100.604;2023-04-01T23:52:26;100891.53;;;36.25;46.86
76095;BME280;64821;13.710;100.604;2023-04-01T23:53:33;100892.81;;;36.28;46.79
76095;BME280;64821;13.710;100.604;2023-04-01T23:54:43;100899.00;;;36.25;47.11
76095;BME280;64821;13.710;100.604;2023-04-01T23:55:47;100903.91;;;36.07;47.71
76095;BME280;64821;13.710;100.604;2023-04-01T23:56:55;100909.22;;;36.12;46.94
76095;BME280;64821;13.710;100.604;2023-04-01T23:58:13;100908.41;;;36.12;47.34
76095;BME280;64821;13.710;100.604;2023-04-01T23:59:18;100908.16;;;36.17;47.21
